sensor_id;sensor_type;location;lat;lon;timestamp;P1;durP1;ratioP1;P2;durP2;ratioP2
43877;SDS011;29815;48.184;11.268;2023-04-16T00:00:10;5.00;;;4.00;;
43877;SDS011;29815;48.184;11.268;2023-04-16T00:02:40;7.43;;;5.30;;
43877;SDS011;29815;48.184;11.268;2023-04-16T00:05:10;5.05;;;4.30;;
43877;SDS011;29815;48.184;11.268;2023-04-16T00:07:39;7.57;;;4.43;;
43877;SDS011;29815;48.184;11.268;2023-04-16T00:10:09;7.57;;;5.03;;
43877;SDS011;29815;48.184;11.268;2023-04-16T00:12:40;7.00;;;5.30;;
43877;SDS011;29815;48.184;11.268;2023-04-16T00:15:09;6.00;;;4.65;;
43877;SDS011;29815;48.184;11.268;2023-04-16T00:17:39;8.88;;;5.53;;
43877;SDS011;29815;48.184;11.268;2023-04-16T00:20:09;6.35;;;4.95;;
43877;SDS011;29815;48.184;11.268;2023-04-16T00:22:38;6.55;;;5.30;;
43877;SDS011;29815;48.184;11.268;2023-04-16T00:25:08;7.50;;;5.22;;
43877;SDS011;29815;48.184;11.268;2023-04-16T00:27:39;5.53;;;4.63;;
43877;SDS011;29815;48.184;11.268;2023-04-16T00:30:08;8.32;;;5.93;;
43877;SDS011;29815;48.184;11.268;2023-04-16T00:32:39;7.50;;;5.40;;
43877;SDS011;29815;48.184;11.268;2023-04-16T00:35:08;5.70;;;4.78;;
43877;SDS011;29815;48.184;11.268;2023-04-16T00:37:38;6.60;;;4.95;;
43877;SDS011;29815;48.184;11.268;2023-04-16T00:40:07;6.72;;;4.70;;
43877;SDS011;29815;48.184;11.268;2023-04-16T00:42:40;7.28;;;5.28;;
43877;SDS011;29815;48.184;11.268;2023-04-16T00:45:10;7.63;;;4.75;;
43877;SDS011;29815;48.184;11.268;2023-04-16T00:47:39;5.47;;;4.93;;
43877;SDS011;29815;48.184;11.268;2023-04-16T00:50:09;5.82;;;4.10;;
43877;SDS011;29815;48.184;11.268;2023-04-16T00:52:39;5.15;;;3.97;;
43877;SDS011;29815;48.184;11.268;2023-04-16T00:55:09;9.95;;;4.30;;
43877;SDS011;29815;48.184;11.268;2023-04-16T00:57:41;4.43;;;3.15;;
43877;SDS011;29815;48.184;11.268;2023-04-16T01:00:11;5.65;;;2.80;;
43877;SDS011;29815;48.184;11.268;2023-04-16T01:02:41;3.63;;;2.53;;
43877;SDS011;29815;48.184;11.268;2023-04-16T01:05:11;2.92;;;2.00;;
43877;SDS011;29815;48.184;11.268;2023-04-16T01:07:41;2.53;;;1.95;;
43877;SDS011;29815;48.184;11.268;2023-04-16T01:10:10;2.42;;;1.70;;
43877;SDS011;29815;48.184;11.268;2023-04-16T01:12:41;2.40;;;1.63;;
43877;SDS011;29815;48.184;11.268;2023-04-16T01:15:11;2.55;;;1.70;;
43877;SDS011;29815;48.184;11.268;2023-04-16T01:17:40;3.45;;;1.77;;
43877;SDS011;29815;48.184;11.268;2023-04-16T01:20:12;1.98;;;1.50;;
43877;SDS011;29815;48.184;11.268;2023-04-16T01:22:43;3.38;;;2.03;;
43877;SDS011;29815;48.184;11.268;2023-04-16T01:25:13;3.10;;;2.17;;
43877;SDS011;29815;48.184;11.268;2023-04-16T01:27:44;3.67;;;2.00;;
43877;SDS011;29815;48.184;11.268;2023-04-16T01:30:17;3.72;;;2.25;;
43877;SDS011;29815;48.184;11.268;2023-04-16T01:32:57;2.83;;;2.30;;
43877;SDS011;29815;48.184;11.268;2023-04-16T01:35:29;2.63;;;2.00;;
43877;SDS011;29815;48.184;11.268;2023-04-16T01:37:59;2.33;;;2.03;;
43877;SDS011;29815;48.184;11.268;2023-04-16T01:40:29;3.45;;;2.40;;
43877;SDS011;29815;48.184;11.268;2023-04-16T01:42:59;4.97;;;3.00;;
43877;SDS011;29815;48.184;11.268;2023-04-16T01:45:29;6.25;;;3.95;;
43877;SDS011;29815;48.184;11.268;2023-04-16T01:48:00;3.58;;;2.75;;
43877;SDS011;29815;48.184;11.268;2023-04-16T01:50:31;4.60;;;2.92;;
43877;SDS011;29815;48.184;11.268;2023-04-16T01:53:02;3.63;;;2.85;;
43877;SDS011;29815;48.184;11.268;2023-04-16T01:55:32;6.13;;;2.92;;
43877;SDS011;29815;48.184;11.268;2023-04-16T01:58:02;5.35;;;3.10;;
43877;SDS011;29815;48.184;11.268;2023-04-16T02:00:34;4.95;;;3.78;;
43877;SDS011;29815;48.184;11.268;2023-04-16T02:03:04;4.13;;;3.47;;
43877;SDS011;29815;48.184;11.268;2023-04-16T02:05:34;4.30;;;3.00;;
43877;SDS011;29815;48.184;11.268;2023-04-16T02:08:05;4.68;;;3.22;;
43877;SDS011;29815;48.184;11.268;2023-04-16T02:10:35;5.53;;;4.00;;
43877;SDS011;29815;48.184;11.268;2023-04-16T02:13:05;5.78;;;3.70;;
43877;SDS011;29815;48.184;11.268;2023-04-16T02:15:34;4.95;;;4.28;;
43877;SDS011;29815;48.184;11.268;2023-04-16T02:18:04;4.47;;;3.40;;
43877;SDS011;29815;48.184;11.268;2023-04-16T02:20:36;5.05;;;4.22;;
43877;SDS011;29815;48.184;11.268;2023-04-16T02:23:10;6.53;;;5.00;;
43877;SDS011;29815;48.184;11.268;2023-04-16T02:25:41;5.35;;;4.47;;
43877;SDS011;29815;48.184;11.268;2023-04-16T02:28:15;5.32;;;4.40;;
43877;SDS011;29815;48.184;11.268;2023-04-16T02:30:46;6.38;;;4.90;;
43877;SDS011;29815;48.184;11.268;2023-04-16T02:33:17;5.70;;;4.53;;
43877;SDS011;29815;48.184;11.268;2023-04-16T02:35:54;6.85;;;5.15;;
43877;SDS011;29815;48.184;11.268;2023-04-16T02:38:25;5.18;;;4.22;;
43877;SDS011;29815;48.184;11.268;2023-04-16T02:40:55;4.78;;;4.10;;
43877;SDS011;29815;48.184;11.268;2023-04-16T02:43:25;7.63;;;5.68;;
43877;SDS011;29815;48.184;11.268;2023-04-16T02:45:55;5.63;;;4.63;;
43877;SDS011;29815;48.184;11.268;2023-04-16T02:48:25;5.38;;;4.20;;
43877;SDS011;29815;48.184;11.268;2023-04-16T02:50:55;5.90;;;5.03;;
43877;SDS011;29815;48.184;11.268;2023-04-16T02:53:26;5.93;;;4.93;;
43877;SDS011;29815;48.184;11.268;2023-04-16T02:55:56;7.40;;;4.95;;
43877;SDS011;29815;48.184;11.268;2023-04-16T02:58:25;5.88;;;4.78;;
43877;SDS011;29815;48.184;11.268;2023-04-16T03:00:55;6.47;;;5.40;;
43877;SDS011;29815;48.184;11.268;2023-04-16T03:03:25;5.75;;;4.65;;
43877;SDS011;29815;48.184;11.268;2023-04-16T03:05:54;5.95;;;4.88;;
43877;SDS011;29815;48.184;11.268;2023-04-16T03:08:24;6.88;;;4.07;;
43877;SDS011;29815;48.184;11.268;2023-04-16T03:10:55;7.22;;;4.10;;
43877;SDS011;29815;48.184;11.268;2023-04-16T03:13:25;5.80;;;4.55;;
43877;SDS011;29815;48.184;11.268;2023-04-16T03:15:54;5.55;;;4.47;;
43877;SDS011;29815;48.184;11.268;2023-04-16T03:18:23;5.18;;;3.88;;
43877;SDS011;29815;48.184;11.268;2023-04-16T03:20:53;5.72;;;4.38;;
43877;SDS011;29815;48.184;11.268;2023-04-16T03:23:22;4.95;;;3.70;;
43877;SDS011;29815;48.184;11.268;2023-04-16T03:25:54;5.93;;;4.22;;
43877;SDS011;29815;48.184;11.268;2023-04-16T03:28:24;6.90;;;4.72;;
43877;SDS011;29815;48.184;11.268;2023-04-16T03:30:53;6.03;;;4.43;;
43877;SDS011;29815;48.184;11.268;2023-04-16T03:33:23;6.10;;;4.97;;
43877;SDS011;29815;48.184;11.268;2023-04-16T03:35:54;6.32;;;4.93;;
43877;SDS011;29815;48.184;11.268;2023-04-16T03:38:26;5.78;;;4.18;;
43877;SDS011;29815;48.184;11.268;2023-04-16T03:40:59;7.22;;;5.18;;
43877;SDS011;29815;48.184;11.268;2023-04-16T03:43:32;6.18;;;4.82;;
43877;SDS011;29815;48.184;11.268;2023-04-16T03:46:01;5.95;;;5.28;;
43877;SDS011;29815;48.184;11.268;2023-04-16T03:48:31;6.65;;;4.90;;
43877;SDS011;29815;48.184;11.268;2023-04-16T03:51:00;6.22;;;4.60;;
43877;SDS011;29815;48.184;11.268;2023-04-16T03:53:30;6.60;;;5.07;;
43877;SDS011;29815;48.184;11.268;2023-04-16T03:56:01;7.55;;;5.60;;
43877;SDS011;29815;48.184;11.268;2023-04-16T03:58:31;6.80;;;4.90;;
43877;SDS011;29815;48.184;11.268;2023-04-16T04:01:00;6.18;;;4.60;;
43877;SDS011;29815;48.184;11.268;2023-04-16T04:03:30;6.93;;;5.38;;
43877;SDS011;29815;48.184;11.268;2023-04-16T04:05:59;7.85;;;5.55;;
43877;SDS011;29815;48.184;11.268;2023-04-16T04:08:30;7.15;;;4.80;;
43877;SDS011;29815;48.184;11.268;2023-04-16T04:11:00;8.25;;;5.65;;
43877;SDS011;29815;48.184;11.268;2023-04-16T04:13:31;6.63;;;5.03;;
43877;SDS011;29815;48.184;11.268;2023-04-16T04:16:01;7.03;;;5.45;;
43877;SDS011;29815;48.184;11.268;2023-04-16T04:18:32;9.32;;;4.90;;
43877;SDS011;29815;48.184;11.268;2023-04-16T04:21:03;6.65;;;5.05;;
43877;SDS011;29815;48.184;11.268;2023-04-16T04:23:34;8.00;;;5.35;;
43877;SDS011;29815;48.184;11.268;2023-04-16T04:26:07;6.55;;;4.88;;
43877;SDS011;29815;48.184;11.268;2023-04-16T04:28:36;6.40;;;5.00;;
43877;SDS011;29815;48.184;11.268;2023-04-16T04:31:06;5.90;;;4.85;;
43877;SDS011;29815;48.184;11.268;2023-04-16T04:33:36;5.93;;;4.88;;
43877;SDS011;29815;48.184;11.268;2023-04-16T04:36:06;9.18;;;5.65;;
43877;SDS011;29815;48.184;11.268;2023-04-16T04:38:36;7.00;;;5.10;;
43877;SDS011;29815;48.184;11.268;2023-04-16T04:41:07;7.93;;;5.85;;
43877;SDS011;29815;48.184;11.268;2023-04-16T04:43:38;6.78;;;5.50;;
43877;SDS011;29815;48.184;11.268;2023-04-16T04:46:07;6.88;;;5.95;;
43877;SDS011;29815;48.184;11.268;2023-04-16T04:48:37;8.93;;;6.20;;
43877;SDS011;29815;48.184;11.268;2023-04-16T04:51:06;6.53;;;5.05;;
43877;SDS011;29815;48.184;11.268;2023-04-16T04:53:36;8.05;;;6.03;;
43877;SDS011;29815;48.184;11.268;2023-04-16T04:56:07;7.03;;;5.50;;
43877;SDS011;29815;48.184;11.268;2023-04-16T04:58:40;7.38;;;6.07;;
43877;SDS011;29815;48.184;11.268;2023-04-16T05:01:09;8.02;;;5.93;;
43877;SDS011;29815;48.184;11.268;2023-04-16T05:03:39;7.68;;;5.88;;
43877;SDS011;29815;48.184;11.268;2023-04-16T05:06:08;8.10;;;6.38;;
43877;SDS011;29815;48.184;11.268;2023-04-16T05:08:38;7.68;;;6.20;;
43877;SDS011;29815;48.184;11.268;2023-04-16T05:11:09;8.65;;;5.57;;
43877;SDS011;29815;48.184;11.268;2023-04-16T05:13:38;7.97;;;6.22;;
43877;SDS011;29815;48.184;11.268;2023-04-16T05:16:08;7.75;;;5.60;;
43877;SDS011;29815;48.184;11.268;2023-04-16T05:18:37;7.72;;;5.95;;
43877;SDS011;29815;48.184;11.268;2023-04-16T05:21:07;6.68;;;4.88;;
43877;SDS011;29815;48.184;11.268;2023-04-16T05:23:37;6.90;;;4.93;;
43877;SDS011;29815;48.184;11.268;2023-04-16T05:26:06;8.65;;;5.70;;
43877;SDS011;29815;48.184;11.268;2023-04-16T05:28:37;5.53;;;4.75;;
43877;SDS011;29815;48.184;11.268;2023-04-16T05:31:07;5.75;;;4.85;;
43877;SDS011;29815;48.184;11.268;2023-04-16T05:33:36;6.50;;;4.90;;
43877;SDS011;29815;48.184;11.268;2023-04-16T05:36:06;7.47;;;5.18;;
43877;SDS011;29815;48.184;11.268;2023-04-16T05:38:35;7.00;;;5.10;;
43877;SDS011;29815;48.184;11.268;2023-04-16T05:41:05;5.68;;;4.82;;
43877;SDS011;29815;48.184;11.268;2023-04-16T05:43:36;4.90;;;4.40;;
43877;SDS011;29815;48.184;11.268;2023-04-16T05:46:05;5.65;;;4.20;;
43877;SDS011;29815;48.184;11.268;2023-04-16T05:48:35;5.15;;;4.03;;
43877;SDS011;29815;48.184;11.268;2023-04-16T05:51:05;4.25;;;3.58;;
43877;SDS011;29815;48.184;11.268;2023-04-16T05:53:35;4.40;;;3.97;;
43877;SDS011;29815;48.184;11.268;2023-04-16T05:56:04;4.90;;;3.70;;
43877;SDS011;29815;48.184;11.268;2023-04-16T05:58:37;3.60;;;3.08;;
43877;SDS011;29815;48.184;11.268;2023-04-16T06:01:06;5.43;;;3.75;;
43877;SDS011;29815;48.184;11.268;2023-04-16T06:03:38;4.35;;;2.92;;
43877;SDS011;29815;48.184;11.268;2023-04-16T06:06:07;3.17;;;2.35;;
43877;SDS011;29815;48.184;11.268;2023-04-16T06:08:37;3.20;;;2.90;;
43877;SDS011;29815;48.184;11.268;2023-04-16T06:11:07;3.75;;;2.95;;
43877;SDS011;29815;48.184;11.268;2023-04-16T06:13:38;3.35;;;2.80;;
43877;SDS011;29815;48.184;11.268;2023-04-16T06:16:07;2.35;;;1.90;;
43877;SDS011;29815;48.184;11.268;2023-04-16T06:18:37;3.00;;;2.50;;
43877;SDS011;29815;48.184;11.268;2023-04-16T06:21:07;2.28;;;2.08;;
43877;SDS011;29815;48.184;11.268;2023-04-16T06:23:37;2.83;;;2.53;;
43877;SDS011;29815;48.184;11.268;2023-04-16T06:26:07;2.67;;;1.83;;
43877;SDS011;29815;48.184;11.268;2023-04-16T06:28:37;2.63;;;2.00;;
43877;SDS011;29815;48.184;11.268;2023-04-16T06:31:07;1.92;;;1.52;;
43877;SDS011;29815;48.184;11.268;2023-04-16T06:33:37;2.10;;;1.63;;
43877;SDS011;29815;48.184;11.268;2023-04-16T06:36:07;2.08;;;1.40;;
43877;SDS011;29815;48.184;11.268;2023-04-16T06:38:38;1.67;;;1.52;;
43877;SDS011;29815;48.184;11.268;2023-04-16T06:41:07;1.30;;;1.20;;
43877;SDS011;29815;48.184;11.268;2023-04-16T06:43:38;1.45;;;1.25;;
43877;SDS011;29815;48.184;11.268;2023-04-16T06:46:08;2.13;;;1.58;;
43877;SDS011;29815;48.184;11.268;2023-04-16T06:48:37;1.23;;;1.13;;
43877;SDS011;29815;48.184;11.268;2023-04-16T06:51:07;1.23;;;1.00;;
43877;SDS011;29815;48.184;11.268;2023-04-16T06:53:36;1.73;;;1.00;;
43877;SDS011;29815;48.184;11.268;2023-04-16T06:56:07;1.77;;;1.40;;
43877;SDS011;29815;48.184;11.268;2023-04-16T06:58:36;1.50;;;1.30;;
43877;SDS011;29815;48.184;11.268;2023-04-16T07:01:07;1.52;;;1.20;;
43877;SDS011;29815;48.184;11.268;2023-04-16T07:03:37;1.20;;;0.85;;
43877;SDS011;29815;48.184;11.268;2023-04-16T07:06:06;1.40;;;0.90;;
43877;SDS011;29815;48.184;11.268;2023-04-16T07:08:36;1.55;;;0.98;;
43877;SDS011;29815;48.184;11.268;2023-04-16T07:11:06;1.27;;;1.00;;
43877;SDS011;29815;48.184;11.268;2023-04-16T07:13:35;1.98;;;0.70;;
43877;SDS011;29815;48.184;11.268;2023-04-16T07:16:06;1.55;;;0.90;;
43877;SDS011;29815;48.184;11.268;2023-04-16T07:18:36;1.38;;;1.08;;
43877;SDS011;29815;48.184;11.268;2023-04-16T07:21:05;0.98;;;0.90;;
43877;SDS011;29815;48.184;11.268;2023-04-16T07:23:35;1.27;;;0.90;;
43877;SDS011;29815;48.184;11.268;2023-04-16T07:26:05;1.77;;;0.88;;
43877;SDS011;29815;48.184;11.268;2023-04-16T07:28:34;2.15;;;0.73;;
43877;SDS011;29815;48.184;11.268;2023-04-16T07:31:04;0.65;;;0.60;;
43877;SDS011;29815;48.184;11.268;2023-04-16T07:33:35;0.60;;;0.60;;
43877;SDS011;29815;48.184;11.268;2023-04-16T07:36:05;1.92;;;1.00;;
43877;SDS011;29815;48.184;11.268;2023-04-16T07:38:35;1.25;;;1.02;;
43877;SDS011;29815;48.184;11.268;2023-04-16T07:41:04;0.65;;;0.57;;
43877;SDS011;29815;48.184;11.268;2023-04-16T07:43:34;1.75;;;0.70;;
43877;SDS011;29815;48.184;11.268;2023-04-16T07:46:04;1.00;;;0.60;;
43877;SDS011;29815;48.184;11.268;2023-04-16T07:48:35;0.40;;;0.40;;
43877;SDS011;29815;48.184;11.268;2023-04-16T07:51:05;1.43;;;0.97;;
43877;SDS011;29815;48.184;11.268;2023-04-16T07:53:34;1.92;;;0.80;;
43877;SDS011;29815;48.184;11.268;2023-04-16T07:56:04;0.55;;;0.50;;
43877;SDS011;29815;48.184;11.268;2023-04-16T07:58:35;0.57;;;0.55;;
43877;SDS011;29815;48.184;11.268;2023-04-16T08:01:06;0.65;;;0.43;;
43877;SDS011;29815;48.184;11.268;2023-04-16T08:03:36;0.95;;;0.73;;
43877;SDS011;29815;48.184;11.268;2023-04-16T08:06:05;0.40;;;0.40;;
43877;SDS011;29815;48.184;11.268;2023-04-16T08:08:35;1.02;;;0.60;;
43877;SDS011;29815;48.184;11.268;2023-04-16T08:11:04;0.55;;;0.52;;
43877;SDS011;29815;48.184;11.268;2023-04-16T08:13:34;0.80;;;0.68;;
43877;SDS011;29815;48.184;11.268;2023-04-16T08:16:04;0.82;;;0.70;;
43877;SDS011;29815;48.184;11.268;2023-04-16T08:18:36;0.40;;;0.38;;
43877;SDS011;29815;48.184;11.268;2023-04-16T08:21:05;1.55;;;0.90;;
43877;SDS011;29815;48.184;11.268;2023-04-16T08:23:35;0.57;;;0.40;;
43877;SDS011;29815;48.184;11.268;2023-04-16T08:26:04;0.40;;;0.40;;
43877;SDS011;29815;48.184;11.268;2023-04-16T08:28:34;0.77;;;0.47;;
43877;SDS011;29815;48.184;11.268;2023-04-16T08:31:03;0.35;;;0.35;;
43877;SDS011;29815;48.184;11.268;2023-04-16T08:33:35;0.43;;;0.40;;
43877;SDS011;29815;48.184;11.268;2023-04-16T08:36:04;0.80;;;0.40;;
43877;SDS011;29815;48.184;11.268;2023-04-16T08:38:34;1.70;;;0.40;;
43877;SDS011;29815;48.184;11.268;2023-04-16T08:41:04;0.93;;;0.52;;
43877;SDS011;29815;48.184;11.268;2023-04-16T08:43:37;1.77;;;0.75;;
43877;SDS011;29815;48.184;11.268;2023-04-16T08:46:12;1.15;;;0.82;;
43877;SDS011;29815;48.184;11.268;2023-04-16T08:48:46;1.90;;;1.60;;
43877;SDS011;29815;48.184;11.268;2023-04-16T08:51:22;0.47;;;0.40;;
43877;SDS011;29815;48.184;11.268;2023-04-16T08:54:03;0.73;;;0.60;;
43877;SDS011;29815;48.184;11.268;2023-04-16T08:56:37;0.95;;;0.63;;
43877;SDS011;29815;48.184;11.268;2023-04-16T08:59:09;0.98;;;0.70;;
43877;SDS011;29815;48.184;11.268;2023-04-16T09:01:39;0.88;;;0.55;;
43877;SDS011;29815;48.184;11.268;2023-04-16T09:04:11;1.08;;;0.30;;
43877;SDS011;29815;48.184;11.268;2023-04-16T09:06:43;1.77;;;0.85;;
43877;SDS011;29815;48.184;11.268;2023-04-16T09:09:15;0.30;;;0.30;;
43877;SDS011;29815;48.184;11.268;2023-04-16T09:11:47;0.30;;;0.30;;
43877;SDS011;29815;48.184;11.268;2023-04-16T09:14:20;0.45;;;0.40;;
43877;SDS011;29815;48.184;11.268;2023-04-16T09:16:49;0.43;;;0.38;;
43877;SDS011;29815;48.184;11.268;2023-04-16T09:19:23;0.50;;;0.50;;
43877;SDS011;29815;48.184;11.268;2023-04-16T09:21:52;0.30;;;0.30;;
43877;SDS011;29815;48.184;11.268;2023-04-16T09:24:22;0.50;;;0.50;;
43877;SDS011;29815;48.184;11.268;2023-04-16T09:26:52;0.88;;;0.57;;
43877;SDS011;29815;48.184;11.268;2023-04-16T09:29:32;0.70;;;0.40;;
43877;SDS011;29815;48.184;11.268;2023-04-16T09:32:04;0.68;;;0.50;;
43877;SDS011;29815;48.184;11.268;2023-04-16T09:37:27;0.30;;;0.30;;
43877;SDS011;29815;48.184;11.268;2023-04-16T09:39:58;0.68;;;0.57;;
43877;SDS011;29815;48.184;11.268;2023-04-16T09:42:32;1.90;;;0.85;;
43877;SDS011;29815;48.184;11.268;2023-04-16T09:45:04;0.40;;;0.40;;
43877;SDS011;29815;48.184;11.268;2023-04-16T09:47:39;0.43;;;0.20;;
43877;SDS011;29815;48.184;11.268;2023-04-16T09:50:14;0.50;;;0.50;;
43877;SDS011;29815;48.184;11.268;2023-04-16T09:52:47;0.32;;;0.30;;
43877;SDS011;29815;48.184;11.268;2023-04-16T09:55:21;0.55;;;0.40;;
43877;SDS011;29815;48.184;11.268;2023-04-16T09:57:57;0.95;;;0.50;;
43877;SDS011;29815;48.184;11.268;2023-04-16T10:00:28;0.43;;;0.43;;
43877;SDS011;29815;48.184;11.268;2023-04-16T10:03:02;0.95;;;0.73;;
43877;SDS011;29815;48.184;11.268;2023-04-16T10:05:35;0.80;;;0.80;;
43877;SDS011;29815;48.184;11.268;2023-04-16T10:08:10;0.57;;;0.50;;
43877;SDS011;29815;48.184;11.268;2023-04-16T10:10:41;1.17;;;0.50;;
43877;SDS011;29815;48.184;11.268;2023-04-16T10:13:10;0.85;;;0.50;;
43877;SDS011;29815;48.184;11.268;2023-04-16T10:15:43;0.40;;;0.40;;
43877;SDS011;29815;48.184;11.268;2023-04-16T10:18:13;0.77;;;0.60;;
43877;SDS011;29815;48.184;11.268;2023-04-16T10:20:46;1.00;;;0.32;;
43877;SDS011;29815;48.184;11.268;2023-04-16T10:23:17;0.50;;;0.50;;
43877;SDS011;29815;48.184;11.268;2023-04-16T10:25:48;1.10;;;0.70;;
43877;SDS011;29815;48.184;11.268;2023-04-16T10:28:21;0.50;;;0.50;;
43877;SDS011;29815;48.184;11.268;2023-04-16T10:30:52;1.05;;;0.80;;
43877;SDS011;29815;48.184;11.268;2023-04-16T10:33:28;1.05;;;0.35;;
43877;SDS011;29815;48.184;11.268;2023-04-16T10:36:08;1.08;;;0.63;;
43877;SDS011;29815;48.184;11.268;2023-04-16T10:38:40;1.40;;;0.90;;
43877;SDS011;29815;48.184;11.268;2023-04-16T10:41:15;1.38;;;0.90;;
43877;SDS011;29815;48.184;11.268;2023-04-16T10:43:45;1.02;;;0.60;;
43877;SDS011;29815;48.184;11.268;2023-04-16T10:48:52;0.82;;;0.50;;
43877;SDS011;29815;48.184;11.268;2023-04-16T10:51:26;0.65;;;0.32;;
43877;SDS011;29815;48.184;11.268;2023-04-16T10:54:01;0.43;;;0.30;;
43877;SDS011;29815;48.184;11.268;2023-04-16T10:56:48;1.33;;;0.40;;
43877;SDS011;29815;48.184;11.268;2023-04-16T10:59:18;1.00;;;0.60;;
43877;SDS011;29815;48.184;11.268;2023-04-16T11:01:54;1.05;;;0.63;;
43877;SDS011;29815;48.184;11.268;2023-04-16T11:04:37;0.70;;;0.60;;
43877;SDS011;29815;48.184;11.268;2023-04-16T11:07:15;1.30;;;0.57;;
43877;SDS011;29815;48.184;11.268;2023-04-16T11:09:52;1.65;;;0.88;;
43877;SDS011;29815;48.184;11.268;2023-04-16T11:12:24;1.17;;;0.80;;
43877;SDS011;29815;48.184;11.268;2023-04-16T11:15:02;0.75;;;0.60;;
43877;SDS011;29815;48.184;11.268;2023-04-16T11:17:36;1.58;;;0.93;;
43877;SDS011;29815;48.184;11.268;2023-04-16T11:31:31;0.90;;;0.50;;
43877;SDS011;29815;48.184;11.268;2023-04-16T11:34:01;0.70;;;0.45;;
43877;SDS011;29815;48.184;11.268;2023-04-16T11:36:41;1.77;;;0.60;;
43877;SDS011;29815;48.184;11.268;2023-04-16T11:39:11;1.50;;;0.75;;
43877;SDS011;29815;48.184;11.268;2023-04-16T11:41:41;0.43;;;0.43;;
43877;SDS011;29815;48.184;11.268;2023-04-16T11:44:17;0.90;;;0.75;;
43877;SDS011;29815;48.184;11.268;2023-04-16T11:46:50;0.70;;;0.70;;
43877;SDS011;29815;48.184;11.268;2023-04-16T11:49:30;2.90;;;1.77;;
43877;SDS011;29815;48.184;11.268;2023-04-16T11:52:00;4.57;;;2.53;;
43877;SDS011;29815;48.184;11.268;2023-04-16T11:54:29;3.00;;;1.92;;
43877;SDS011;29815;48.184;11.268;2023-04-16T11:57:01;0.68;;;0.60;;
43877;SDS011;29815;48.184;11.268;2023-04-16T11:59:31;1.02;;;0.57;;
43877;SDS011;29815;48.184;11.268;2023-04-16T12:02:04;2.35;;;0.90;;
43877;SDS011;29815;48.184;11.268;2023-04-16T12:04:34;1.58;;;1.15;;
43877;SDS011;29815;48.184;11.268;2023-04-16T12:07:04;1.33;;;0.90;;
43877;SDS011;29815;48.184;11.268;2023-04-16T12:09:36;1.60;;;0.80;;
43877;SDS011;29815;48.184;11.268;2023-04-16T12:12:24;1.02;;;0.73;;
43877;SDS011;29815;48.184;11.268;2023-04-16T12:14:57;1.13;;;0.50;;
43877;SDS011;29815;48.184;11.268;2023-04-16T12:17:32;0.80;;;0.60;;
43877;SDS011;29815;48.184;11.268;2023-04-16T12:20:07;0.63;;;0.50;;
43877;SDS011;29815;48.184;11.268;2023-04-16T12:22:42;0.98;;;0.52;;
43877;SDS011;29815;48.184;11.268;2023-04-16T12:25:14;1.08;;;0.82;;
43877;SDS011;29815;48.184;11.268;2023-04-16T12:27:45;0.88;;;0.50;;
43877;SDS011;29815;48.184;11.268;2023-04-16T12:30:20;0.75;;;0.65;;
43877;SDS011;29815;48.184;11.268;2023-04-16T12:35:45;0.70;;;0.60;;
43877;SDS011;29815;48.184;11.268;2023-04-16T12:38:15;0.50;;;0.30;;
43877;SDS011;29815;48.184;11.268;2023-04-16T12:40:45;0.38;;;0.32;;
43877;SDS011;29815;48.184;11.268;2023-04-16T12:43:15;1.25;;;0.70;;
43877;SDS011;29815;48.184;11.268;2023-04-16T12:45:46;1.20;;;1.10;;
43877;SDS011;29815;48.184;11.268;2023-04-16T12:48:17;0.47;;;0.47;;
43877;SDS011;29815;48.184;11.268;2023-04-16T12:50:46;0.88;;;0.70;;
43877;SDS011;29815;48.184;11.268;2023-04-16T12:53:16;0.60;;;0.60;;
43877;SDS011;29815;48.184;11.268;2023-04-16T12:55:45;0.63;;;0.50;;
43877;SDS011;29815;48.184;11.268;2023-04-16T12:58:15;0.88;;;0.50;;
43877;SDS011;29815;48.184;11.268;2023-04-16T13:00:44;0.77;;;0.50;;
43877;SDS011;29815;48.184;11.268;2023-04-16T13:03:14;0.98;;;0.60;;
43877;SDS011;29815;48.184;11.268;2023-04-16T13:05:45;1.23;;;0.65;;
43877;SDS011;29815;48.184;11.268;2023-04-16T13:08:14;0.98;;;0.68;;
43877;SDS011;29815;48.184;11.268;2023-04-16T13:10:44;1.58;;;0.77;;
43877;SDS011;29815;48.184;11.268;2023-04-16T13:13:13;1.35;;;0.80;;
43877;SDS011;29815;48.184;11.268;2023-04-16T13:15:43;2.25;;;1.08;;
43877;SDS011;29815;48.184;11.268;2023-04-16T13:18:12;6.32;;;2.58;;
43877;SDS011;29815;48.184;11.268;2023-04-16T13:20:43;5.22;;;2.58;;
43877;SDS011;29815;48.184;11.268;2023-04-16T13:23:13;3.53;;;2.00;;
43877;SDS011;29815;48.184;11.268;2023-04-16T13:25:42;2.30;;;1.38;;
43877;SDS011;29815;48.184;11.268;2023-04-16T13:28:12;1.40;;;0.80;;
43877;SDS011;29815;48.184;11.268;2023-04-16T13:30:41;1.52;;;0.70;;
43877;SDS011;29815;48.184;11.268;2023-04-16T13:33:11;1.00;;;0.82;;
43877;SDS011;29815;48.184;11.268;2023-04-16T13:35:41;0.65;;;0.50;;
43877;SDS011;29815;48.184;11.268;2023-04-16T13:38:12;0.47;;;0.47;;
43877;SDS011;29815;48.184;11.268;2023-04-16T13:40:41;1.00;;;0.80;;
43877;SDS011;29815;48.184;11.268;2023-04-16T13:43:11;0.77;;;0.52;;
43877;SDS011;29815;48.184;11.268;2023-04-16T13:45:42;1.08;;;0.93;;
43877;SDS011;29815;48.184;11.268;2023-04-16T13:48:12;1.30;;;0.80;;
43877;SDS011;29815;48.184;11.268;2023-04-16T13:50:42;0.88;;;0.55;;
43877;SDS011;29815;48.184;11.268;2023-04-16T13:53:13;1.15;;;0.95;;
43877;SDS011;29815;48.184;11.268;2023-04-16T13:55:43;1.05;;;0.73;;
43877;SDS011;29815;48.184;11.268;2023-04-16T13:58:12;0.82;;;0.73;;
43877;SDS011;29815;48.184;11.268;2023-04-16T14:00:42;0.98;;;0.70;;
43877;SDS011;29815;48.184;11.268;2023-04-16T14:03:12;1.30;;;1.00;;
43877;SDS011;29815;48.184;11.268;2023-04-16T14:05:42;2.10;;;1.30;;
43877;SDS011;29815;48.184;11.268;2023-04-16T14:08:11;1.58;;;0.90;;
43877;SDS011;29815;48.184;11.268;2023-04-16T14:10:43;2.17;;;0.80;;
43877;SDS011;29815;48.184;11.268;2023-04-16T14:13:12;0.88;;;0.70;;
43877;SDS011;29815;48.184;11.268;2023-04-16T14:15:42;1.98;;;0.80;;
43877;SDS011;29815;48.184;11.268;2023-04-16T14:18:12;1.15;;;0.70;;
43877;SDS011;29815;48.184;11.268;2023-04-16T14:20:42;1.40;;;0.90;;
43877;SDS011;29815;48.184;11.268;2023-04-16T14:23:11;0.90;;;0.70;;
43877;SDS011;29815;48.184;11.268;2023-04-16T14:25:42;2.42;;;0.63;;
43877;SDS011;29815;48.184;11.268;2023-04-16T14:28:12;1.20;;;0.90;;
43877;SDS011;29815;48.184;11.268;2023-04-16T14:30:42;1.95;;;0.85;;
43877;SDS011;29815;48.184;11.268;2023-04-16T14:33:11;1.27;;;0.70;;
43877;SDS011;29815;48.184;11.268;2023-04-16T14:35:41;1.15;;;0.90;;
43877;SDS011;29815;48.184;11.268;2023-04-16T14:38:11;2.97;;;0.70;;
43877;SDS011;29815;48.184;11.268;2023-04-16T14:40:42;1.52;;;0.90;;
43877;SDS011;29815;48.184;11.268;2023-04-16T14:43:11;1.33;;;0.73;;
43877;SDS011;29815;48.184;11.268;2023-04-16T14:45:41;1.30;;;1.02;;
43877;SDS011;29815;48.184;11.268;2023-04-16T14:48:11;1.17;;;0.70;;
43877;SDS011;29815;48.184;11.268;2023-04-16T14:50:40;1.55;;;0.95;;
43877;SDS011;29815;48.184;11.268;2023-04-16T14:53:10;2.00;;;0.90;;
43877;SDS011;29815;48.184;11.268;2023-04-16T14:55:41;3.42;;;1.70;;
43877;SDS011;29815;48.184;11.268;2023-04-16T14:58:11;2.50;;;1.27;;
43877;SDS011;29815;48.184;11.268;2023-04-16T15:00:40;2.78;;;0.85;;
43877;SDS011;29815;48.184;11.268;2023-04-16T15:03:10;2.38;;;1.33;;
43877;SDS011;29815;48.184;11.268;2023-04-16T15:05:40;2.22;;;1.50;;
43877;SDS011;29815;48.184;11.268;2023-04-16T15:08:09;1.15;;;1.02;;
43877;SDS011;29815;48.184;11.268;2023-04-16T15:10:39;1.50;;;1.05;;
43877;SDS011;29815;48.184;11.268;2023-04-16T15:13:11;1.33;;;0.90;;